CheckWX is a tool to help pilots better visualize weather data.  It is not intended as a substitute for an official pre-flight weather briefing.

18:34:42 UTC

GCFV METAR
Fuerteventura Airport
Fuerteventura Island, Spain
Current

35 mins ago

GCFV 221800Z 04005KT 7000 NSC 21/15 Q1021
Observed
Feb-22 @ 18:00 UTC
Wind
  • 040° at 5 KTS
Visibility
7,001 meters
Flight Rules
MVFR
Cloud Levels
  • Clear skies
Temperature
21°C / 70°F
Dewpoint
15°C / 59°F
Humidity
69%
Altimeter
30.15" Hg
Pressure
1020.92 hPa
Previous

1 hour ago

GCFV 221730Z 04006KT 7000 NSC 21/13 Q1021
Observed
Feb-22 @ 17:30 UTC
Wind
  • 040° at 6 KTS
Visibility
7,001 meters
Flight Rules
MVFR
Cloud Levels
  • Clear skies
Temperature
21°C / 70°F
Dewpoint
13°C / 55°F
Humidity
60%
Altimeter
30.15" Hg
Pressure
1020.92 hPa
Previous

2 hours ago

GCFV 221700Z 04006KT 7000 NSC 22/13 Q1021
Observed
Feb-22 @ 17:00 UTC
Wind
  • 040° at 6 KTS
Visibility
7,001 meters
Flight Rules
MVFR
Cloud Levels
  • Clear skies
Temperature
22°C / 72°F
Dewpoint
13°C / 55°F
Humidity
57%
Altimeter
30.15" Hg
Pressure
1020.92 hPa